Time;durP1;ratioP1;P1;durP2;ratioP2;P2;SDS_P1;SDS_P2;PMS_P1;PMS_P2;Temp;Humidity;BMP_temperature;BMP_pressure;BME280_temperature;BME280_humidity;BME280_pressure;Samples;Min_cycle;Max_cycle;Signal;HPM_P1;HPM_P2
2021/07/25 00:00:38;;;;;;;10.20;8.40;;;;;;;21.43;51.56;99592.44;5006841;28;20377;-71
2021/07/25 00:03:04;;;;;;;14.90;8.68;;;;;;;21.51;51.79;99589.59;4999703;28;20030;-69
2021/07/25 00:05:30;;;;;;;14.45;9.55;;;;;;;21.37;51.63;99594.06;5008320;28;20095;-69
2021/07/25 00:07:55;;;;;;;13.70;9.05;;;;;;;21.13;52.63;99596.50;5009136;28;20037;-69
2021/07/25 00:10:21;;;;;;;12.35;9.18;;;;;;;21.24;52.42;99602.19;5005840;28;20037;-69
2021/07/25 00:12:46;;;;;;;14.23;9.43;;;;;;;21.30;51.43;99602.59;5008593;28;20030;-69
2021/07/25 00:15:12;;;;;;;13.18;9.63;;;;;;;21.12;51.87;99597.72;5008944;28;20582;-69
2021/07/25 00:17:37;;;;;;;19.30;9.52;;;;;;;21.00;51.61;99604.59;5012796;28;20391;-69
2021/07/25 00:20:04;;;;;;;24.90;9.82;;;;;;;20.99;51.29;99607.81;5008595;28;20033;-69
2021/07/25 00:22:29;;;;;;;23.67;9.32;;;;;;;20.88;51.95;99620.00;5012148;28;20042;-69
2021/07/25 00:25:18;;;;;;;21.05;8.73;;;;;;;20.89;51.95;99610.25;5011779;28;20025;-70
2021/07/25 00:27:44;;;;;;;19.45;8.40;;;;;;;20.68;52.11;99610.16;5012678;28;20029;-71
2021/07/25 00:30:13;;;;;;;40.00;10.15;;;;;;;20.79;51.70;99607.34;5012042;28;20079;-70
2021/07/25 00:32:40;;;;;;;31.60;9.33;;;;;;;20.65;52.23;99610.97;5012650;28;20064;-70
2021/07/25 00:35:06;;;;;;;23.83;10.20;;;;;;;20.59;52.37;99607.72;5013199;28;20445;-69
2021/07/25 00:37:34;;;;;;;40.70;9.57;;;;;;;20.59;52.82;99608.50;5012679;28;20109;-70
2021/07/25 00:40:00;;;;;;;50.67;10.05;;;;;;;20.84;51.32;99601.31;5013175;28;20027;-70
2021/07/25 00:42:36;;;;;;;29.08;9.20;;;;;;;20.60;52.60;99615.81;5013308;28;20046;-70
2021/07/25 00:45:02;;;;;;;38.08;9.27;;;;;;;20.59;52.02;99599.97;5011744;28;20022;-70
2021/07/25 00:47:28;;;;;;;18.67;8.10;;;;;;;20.64;52.00;99609.34;5013247;28;20049;-70
2021/07/25 00:49:53;;;;;;;21.75;8.32;;;;;;;20.68;51.82;99608.13;5013197;28;20022;-69
2021/07/25 00:52:19;;;;;;;18.45;8.27;;;;;;;20.56;52.30;99609.31;5012919;28;20053;-69
2021/07/25 00:54:45;;;;;;;14.02;8.75;;;;;;;20.41;52.64;99616.16;5013213;28;20030;-70
2021/07/25 00:57:10;;;;;;;10.20;7.85;;;;;;;20.05;53.83;99611.09;5013424;28;20025;-70
2021/07/25 00:59:35;;;;;;;11.48;7.93;;;;;;;19.91;54.41;99615.44;5012997;28;20045;-70
2021/07/25 01:02:01;;;;;;;12.18;9.02;;;;;;;19.77;55.03;99621.81;5028060;28;20251;-70
2021/07/25 01:04:32;;;;;;;15.52;8.57;;;;;;;19.95;54.73;99615.50;5013007;28;20044;-70
2021/07/25 01:07:14;;;;;;;10.07;8.43;;;;;;;19.94;54.26;99613.88;5004893;28;20042;-70
2021/07/25 01:10:05;;;;;;;10.20;8.45;;;;;;;19.92;54.48;99608.59;5012708;28;20483;-70
2021/07/25 01:12:47;;;;;;;11.23;8.93;;;;;;;19.64;55.11;99603.50;5012644;28;20034;-70
2021/07/25 01:15:21;;;;;;;9.65;8.65;;;;;;;19.82;54.59;99606.47;5006948;28;20045;-70
2021/07/25 01:17:47;;;;;;;13.32;8.48;;;;;;;19.91;54.40;99606.13;5011222;28;20042;-69
2021/07/25 01:20:12;;;;;;;20.00;10.05;;;;;;;19.86;54.22;99606.50;5012574;28;20092;-70
2021/07/25 01:22:40;;;;;;;12.23;8.88;;;;;;;20.09;53.62;99609.13;5012315;28;20492;-70
2021/07/25 01:25:09;;;;;;;11.32;8.55;;;;;;;20.05;53.71;99626.13;5011215;28;20026;-70
2021/07/25 01:27:40;;;;;;;10.10;9.00;;;;;;;20.16;53.21;99614.00;5011897;28;20026;-70
2021/07/25 01:30:10;;;;;;;12.45;8.60;;;;;;;20.02;53.34;99621.22;5012063;28;20038;-70
2021/07/25 01:32:38;;;;;;;11.57;9.40;;;;;;;19.88;53.89;99621.09;5027910;28;20112;-70
2021/07/25 01:35:05;;;;;;;12.18;9.10;;;;;;;19.71;54.19;99617.75;5012170;28;20029;-70
2021/07/25 01:37:31;;;;;;;14.30;9.77;;;;;;;19.75;53.88;99624.25;5012277;28;20165;-70
2021/07/25 01:39:57;;;;;;;14.82;9.35;;;;;;;19.35;55.19;99623.13;5010226;28;20026;-70
2021/07/25 01:42:30;;;;;;;10.77;9.68;;;;;;;19.14;55.74;99626.59;5011968;28;20566;-70
2021/07/25 01:44:56;;;;;;;11.27;9.68;;;;;;;19.06;55.76;99623.66;5012240;28;20061;-70
2021/07/25 01:47:22;;;;;;;10.30;8.63;;;;;;;19.10;55.81;99629.38;5012124;28;20037;-70
2021/07/25 01:49:47;;;;;;;14.73;9.85;;;;;;;19.16;55.82;99629.84;5011853;28;20518;-69
2021/07/25 01:52:13;;;;;;;10.63;8.20;;;;;;;18.94;56.06;99636.09;5011806;28;20061;-70
2021/07/25 01:54:38;;;;;;;10.40;8.35;;;;;;;19.05;55.55;99632.56;5009988;28;20512;-70
2021/07/25 01:57:04;;;;;;;11.43;8.90;;;;;;;18.97;55.91;99636.50;5009901;28;20472;-70
2021/07/25 01:59:29;;;;;;;13.73;9.48;;;;;;;19.14;55.60;99635.88;5011740;28;20041;-70
2021/07/25 02:01:55;;;;;;;16.27;8.73;;;;;;;19.23;55.09;99627.06;5011961;28;20392;-70
2021/07/25 02:04:20;;;;;;;14.40;10.30;;;;;;;19.13;55.43;99634.25;5011801;28;20553;-70
2021/07/25 02:06:45;;;;;;;12.93;8.80;;;;;;;19.11;55.16;99633.84;5008870;28;20025;-70
2021/07/25 02:09:13;;;;;;;13.57;9.20;;;;;;;19.03;55.36;99634.97;5011615;28;20037;-70
2021/07/25 02:11:38;;;;;;;14.10;9.65;;;;;;;19.26;54.84;99637.63;5011108;28;20539;-70
2021/07/25 02:14:04;;;;;;;15.57;9.35;;;;;;;19.41;54.37;99626.41;5011279;28;20053;-69
2021/07/25 02:16:30;;;;;;;12.60;9.63;;;;;;;19.35;54.14;99632.44;5011259;28;20033;-69
2021/07/25 02:18:55;;;;;;;13.35;9.05;;;;;;;19.37;53.86;99629.22;5009650;28;20058;-68
2021/07/25 02:21:21;;;;;;;11.70;9.13;;;;;;;19.29;54.30;99636.03;5011630;28;20065;-70
2021/07/25 02:23:46;;;;;;;14.95;8.35;;;;;;;19.16;54.39;99629.84;5009101;28;20032;-68
2021/07/25 02:26:12;;;;;;;15.40;9.05;;;;;;;18.98;54.68;99626.78;5010327;28;20168;-70
2021/07/25 02:28:37;;;;;;;11.82;8.95;;;;;;;18.91;55.44;99631.16;4999687;28;20049;-69
2021/07/25 02:31:03;;;;;;;20.67;8.90;;;;;;;18.90;55.03;99618.22;5011534;28;20034;-70
2021/07/25 02:33:28;;;;;;;17.45;8.77;;;;;;;19.22;54.15;99626.25;5010502;28;20049;-68
2021/07/25 02:35:56;;;;;;;17.92;8.98;;;;;;;19.19;54.07;99620.56;5009001;28;20041;-69
2021/07/25 02:38:22;;;;;;;21.13;9.75;;;;;;;18.99;54.70;99628.41;5010042;28;20443;-70
2021/07/25 02:40:47;;;;;;;29.02;8.75;;;;;;;19.01;54.68;99624.03;5011490;28;20041;-70
2021/07/25 02:43:13;;;;;;;24.63;9.30;;;;;;;18.95;54.53;99628.38;5010482;28;20045;-70
2021/07/25 02:45:38;;;;;;;32.17;9.70;;;;;;;19.04;54.34;99630.91;5011533;28;20443;-70
2021/07/25 02:48:04;;;;;;;22.42;8.80;;;;;;;18.94;54.61;99632.41;5011501;28;20030;-70
2021/07/25 02:50:29;;;;;;;39.50;11.20;;;;;;;18.83;54.82;99629.47;5011444;28;20036;-70
2021/07/25 02:52:55;;;;;;;33.58;10.02;;;;;;;18.67;55.19;99636.16;5009593;28;20474;-68
2021/07/25 02:55:20;;;;;;;28.73;9.23;;;;;;;18.61;55.55;99626.41;5011178;28;20468;-69
2021/07/25 02:57:46;;;;;;;26.23;10.68;;;;;;;18.56;56.30;99625.91;5009217;28;20104;-69
2021/07/25 03:00:12;;;;;;;28.67;10.27;;;;;;;18.77;55.22;99616.84;5011117;28;20063;-68
2021/07/25 03:02:37;;;;;;;28.90;9.15;;;;;;;18.97;54.53;99628.00;5011118;28;20034;-68
2021/07/25 03:05:04;;;;;;;28.48;9.68;;;;;;;18.81;54.61;99623.34;5010979;28;20037;-68
2021/07/25 03:07:29;;;;;;;16.20;9.30;;;;;;;18.57;55.52;99628.34;4996858;28;20492;-68
2021/07/25 03:09:55;;;;;;;24.15;9.25;;;;;;;18.81;54.79;99634.69;5008549;28;20022;-70
2021/07/25 03:12:20;;;;;;;16.70;9.15;;;;;;;18.77;54.75;99626.19;5009276;28;20483;-69
2021/07/25 03:14:46;;;;;;;19.50;10.52;;;;;;;18.66;55.09;99628.06;5009722;28;20278;-69
2021/07/25 03:17:11;;;;;;;25.55;9.80;;;;;;;18.75;55.33;99624.94;5009735;28;20014;-68
2021/07/25 03:19:37;;;;;;;14.27;9.30;;;;;;;18.89;54.64;99629.94;5009756;28;20034;-71
2021/07/25 03:22:07;;;;;;;20.65;9.38;;;;;;;19.00;54.62;99635.75;5010902;28;20026;-69
2021/07/25 03:24:33;;;;;;;19.35;9.07;;;;;;;18.65;55.57;99632.91;5010876;28;20034;-70
2021/07/25 03:26:59;;;;;;;13.13;10.05;;;;;;;18.80;55.40;99631.06;5004210;28;20026;-77
2021/07/25 03:29:24;;;;;;;13.05;10.25;;;;;;;18.92;54.95;99629.16;5008870;28;20117;-76
2021/07/25 03:31:50;;;;;;;19.40;10.23;;;;;;;18.86;55.13;99630.69;5010900;28;20037;-77
2021/07/25 03:34:15;;;;;;;13.80;10.15;;;;;;;19.12;54.29;99635.47;5010389;28;20117;-72
2021/07/25 03:36:43;;;;;;;21.75;11.05;;;;;;;19.13;54.36;99633.47;5022588;28;20049;-73
2021/07/25 03:39:12;;;;;;;15.15;9.60;;;;;;;18.83;54.82;99648.47;5010115;28;20064;-72
2021/07/25 03:41:37;;;;;;;14.13;9.77;;;;;;;18.86;54.94;99642.88;5012224;28;20041;-74
2021/07/25 03:44:03;;;;;;;16.35;9.45;;;;;;;18.77;55.43;99651.69;5010278;28;20029;-71
2021/07/25 03:46:28;;;;;;;13.75;9.55;;;;;;;18.65;55.34;99649.91;5009025;28;20029;-70
2021/07/25 03:48:57;;;;;;;15.13;9.15;;;;;;;18.69;55.36;99661.28;5008045;28;20026;-69
2021/07/25 03:51:22;;;;;;;13.80;9.57;;;;;;;18.35;56.17;99664.91;5009895;28;20534;-69
2021/07/25 03:53:48;;;;;;;14.32;9.65;;;;;;;18.40;56.32;99651.59;5012044;28;20034;-69
2021/07/25 03:56:13;;;;;;;11.15;9.02;;;;;;;18.62;55.59;99650.69;5010310;28;20092;-71
2021/07/25 03:58:39;;;;;;;15.88;10.15;;;;;;;18.63;55.72;99657.16;5013495;28;20278;-71
2021/07/25 04:01:04;;;;;;;19.10;10.50;;;;;;;18.76;55.49;99657.72;5012897;28;20029;-71
2021/07/25 04:03:30;;;;;;;14.85;9.55;;;;;;;18.85;55.09;99663.91;5013011;28;20041;-71
2021/07/25 04:05:55;;;;;;;19.10;9.60;;;;;;;18.62;56.14;99670.50;5013805;28;20030;-69
2021/07/25 04:08:21;;;;;;;23.25;10.95;;;;;;;18.57;56.20;99670.03;5005826;28;20084;-69
2021/07/25 04:10:46;;;;;;;18.80;9.27;;;;;;;18.53;56.39;99675.66;5013629;28;20022;-69
2021/07/25 04:13:12;;;;;;;14.52;10.40;;;;;;;18.55;56.33;99678.91;5012756;28;20040;-71
2021/07/25 04:15:42;;;;;;;17.30;9.82;;;;;;;18.78;56.08;99680.81;5014147;28;20091;-71
2021/07/25 04:18:08;;;;;;;14.65;9.65;;;;;;;18.74;56.13;99677.94;5013880;28;20056;-71
2021/07/25 04:20:35;;;;;;;13.40;9.88;;;;;;;18.66;56.74;99685.53;5012652;28;20038;-69
2021/07/25 04:23:02;;;;;;;14.80;10.20;;;;;;;18.61;57.11;99693.53;5012383;28;20030;-70
2021/07/25 04:25:29;;;;;;;13.07;10.32;;;;;;;18.40;58.10;99689.22;5007155;28;20030;-70
2021/07/25 04:27:56;;;;;;;16.55;10.32;;;;;;;18.61;57.31;99688.72;5013904;28;20052;-71
2021/07/25 04:30:22;;;;;;;14.40;10.18;;;;;;;18.86;56.78;99688.19;5012662;28;20042;-70
2021/07/25 04:32:48;;;;;;;15.05;9.88;;;;;;;18.93;56.56;99688.25;5012941;28;20121;-72
2021/07/25 04:35:14;;;;;;;18.83;9.63;;;;;;;19.09;56.43;99684.44;5012515;28;20114;-69
2021/07/25 04:37:48;;;;;;;15.02;9.57;;;;;;;19.05;56.54;99692.06;5013810;28;20089;-68
2021/07/25 04:40:15;;;;;;;10.55;9.40;;;;;;;19.16;56.01;99692.22;5013930;28;20033;-69
2021/07/25 04:42:45;;;;;;;13.57;10.30;;;;;;;19.18;55.60;99684.13;5011972;28;20132;-66
2021/07/25 04:45:22;;;;;;;12.10;10.10;;;;;;;19.16;55.67;99695.84;5013659;28;20050;-68
2021/07/25 04:48:07;;;;;;;12.13;9.45;;;;;;;19.35;55.27;99694.03;5013690;28;20496;-66
2021/07/25 04:50:39;;;;;;;16.17;9.38;;;;;;;19.42;55.08;99696.91;5007518;28;20645;-67
2021/07/25 04:53:06;;;;;;;19.58;10.48;;;;;;;19.35;55.46;99692.00;5012349;28;20416;-66
2021/07/25 04:55:35;;;;;;;14.43;9.75;;;;;;;19.43;55.16;99695.72;5012499;28;20029;-68
2021/07/25 04:58:06;;;;;;;15.95;11.57;;;;;;;19.45;54.57;99696.16;5010616;28;20037;-69
2021/07/25 05:00:32;;;;;;;12.40;8.80;;;;;;;19.59;54.21;99697.50;5010670;28;20026;-66
2021/07/25 05:03:03;;;;;;;13.93;8.90;;;;;;;19.67;54.03;99696.34;5011335;28;20443;-66
2021/07/25 05:05:29;;;;;;;9.55;8.20;;;;;;;19.68;54.01;99697.97;5012054;28;20026;-66
2021/07/25 05:07:59;;;;;;;13.25;8.45;;;;;;;19.83;53.20;99686.75;5010893;28;20420;-68
2021/07/25 05:10:25;;;;;;;16.35;8.75;;;;;;;19.84;53.57;99689.19;5013141;28;20069;-68
2021/07/25 05:13:07;;;;;;;18.80;8.77;;;;;;;19.92;52.83;99682.38;5011890;28;20072;-67
2021/07/25 05:15:35;;;;;;;9.75;8.35;;;;;;;19.95;53.57;99694.97;5010718;28;20369;-69
2021/07/25 05:18:07;;;;;;;13.55;8.93;;;;;;;20.14;53.27;99690.22;5002356;28;20651;-68
2021/07/25 05:20:57;;;;;;;14.45;8.35;;;;;;;20.27;52.58;99690.72;5010978;28;20033;-66
2021/07/25 05:23:24;;;;;;;;;;;;;;;20.36;52.12;99691.19;5012161;28;20046;-68
2021/07/25 05:25:54;;;;;;;12.57;7.78;;;;;;;20.36;51.83;99696.88;5013013;28;19918;-66
2021/07/25 05:28:20;;;;;;;13.70;8.53;;;;;;;20.60;50.96;99681.16;5011651;28;20038;-66
2021/07/25 05:30:52;;;;;;;10.93;8.20;;;;;;;20.66;51.06;99687.28;5012790;28;20554;-66
2021/07/25 05:33:21;;;;;;;12.00;7.55;;;;;;;20.65;49.83;99690.53;5012685;28;20034;-67
2021/07/25 05:35:47;;;;;;;15.05;8.85;;;;;;;20.74;50.21;99683.25;5012864;28;20033;-66
2021/07/25 05:38:13;;;;;;;22.20;8.63;;;;;;;20.80;50.18;99678.00;5011386;28;20096;-66
2021/07/25 05:40:38;;;;;;;16.20;8.60;;;;;;;20.86;49.30;99687.00;5012708;28;20038;-66
2021/07/25 05:43:04;;;;;;;14.57;8.80;;;;;;;20.89;48.40;99681.31;5012442;28;20045;-69
2021/07/25 05:45:29;;;;;;;13.25;8.32;;;;;;;20.99;48.35;99684.59;5011331;28;20030;-68
2021/07/25 05:47:55;;;;;;;15.73;11.52;;;;;;;21.20;47.85;99692.38;5011348;28;20385;-68
2021/07/25 05:50:20;;;;;;;15.50;9.90;;;;;;;21.21;48.01;99682.63;5012548;28;20034;-68
2021/07/25 05:52:49;;;;;;;10.82;8.25;;;;;;;21.34;47.80;99691.56;5012284;28;20393;-66
2021/07/25 05:55:23;;;;;;;11.50;8.20;;;;;;;21.48;47.69;99689.97;5012324;28;20045;-67
2021/07/25 05:57:49;;;;;;;16.35;8.18;;;;;;;21.52;48.03;99691.59;5012319;28;20407;-69
2021/07/25 06:00:15;;;;;;;14.60;8.60;;;;;;;21.62;48.36;99687.16;5012143;28;20037;-69
2021/07/25 06:02:54;;;;;;;9.93;7.68;;;;;;;21.59;48.50;99688.78;5012243;28;20038;-70
2021/07/25 06:05:20;;;;;;;11.57;8.75;;;;;;;21.75;48.68;99693.28;5012086;28;20030;-66
2021/07/25 06:07:46;;;;;;;14.05;8.20;;;;;;;21.78;48.51;99695.34;5006448;28;20128;-69
2021/07/25 06:10:11;;;;;;;13.32;8.25;;;;;;;22.04;47.88;99695.28;5006828;28;20476;-69
2021/07/25 06:12:38;;;;;;;12.35;7.85;;;;;;;22.07;47.53;99692.44;5006589;28;20042;-68
2021/07/25 06:15:04;;;;;;;17.35;8.77;;;;;;;22.16;47.54;99698.53;5011557;28;20022;-71
2021/07/25 06:17:30;;;;;;;15.60;7.85;;;;;;;22.15;47.62;99693.25;5010232;28;20041;-67
2021/07/25 06:19:55;;;;;;;18.50;8.77;;;;;;;22.14;47.68;99703.84;5003839;28;20404;-69
2021/07/25 06:22:21;;;;;;;12.43;7.82;;;;;;;22.28;47.28;99697.28;5010613;28;20564;-66
2021/07/25 06:24:46;;;;;;;12.95;7.55;;;;;;;22.51;47.35;99700.94;5010182;28;20064;-68
2021/07/25 06:27:11;;;;;;;10.95;8.38;;;;;;;22.65;46.85;99698.03;5011340;28;20030;-69
2021/07/25 06:29:37;;;;;;;8.63;7.03;;;;;;;22.73;46.54;99687.44;5011870;28;20030;-69
2021/07/25 06:32:03;;;;;;;11.73;7.03;;;;;;;22.83;46.07;99697.97;5011592;28;20033;-70
2021/07/25 06:34:28;;;;;;;10.32;6.30;;;;;;;22.78;45.45;99695.53;5011626;28;20061;-70
2021/07/25 06:36:53;;;;;;;9.13;6.53;;;;;;;22.90;45.95;99693.44;5011500;28;20033;-67
2021/07/25 06:39:19;;;;;;;14.13;6.65;;;;;;;22.97;45.46;99697.06;5008779;28;20750;-70
2021/07/25 06:41:44;;;;;;;9.93;7.30;;;;;;;23.06;45.35;99690.94;5024361;28;20088;-66
2021/07/25 06:44:10;;;;;;;10.20;7.35;;;;;;;23.16;45.62;99688.44;5010389;28;20741;-70
2021/07/25 06:46:35;;;;;;;14.40;7.40;;;;;;;23.33;44.92;99684.69;5009624;28;20129;-69
2021/07/25 06:49:00;;;;;;;13.88;7.57;;;;;;;23.31;45.16;99692.88;5003653;28;20392;-68
2021/07/25 06:51:26;;;;;;;10.32;7.68;;;;;;;23.43;45.55;99683.00;5005933;28;20408;-68
2021/07/25 06:53:51;;;;;;;8.15;5.88;;;;;;;23.46;45.41;99687.84;5011701;28;20033;-68
2021/07/25 06:56:17;;;;;;;9.10;5.93;;;;;;;23.65;45.35;99683.66;5009916;28;20033;-70
2021/07/25 06:58:44;;;;;;;10.30;6.65;;;;;;;23.67;44.53;99686.06;5011434;28;20036;-68
2021/07/25 07:01:10;;;;;;;11.15;7.30;;;;;;;23.77;45.46;99685.19;5010269;28;20033;-70
2021/07/25 07:03:36;;;;;;;8.50;6.32;;;;;;;23.87;44.49;99682.66;5010844;28;20125;-68
2021/07/25 07:06:11;;;;;;;12.32;5.72;;;;;;;23.97;43.50;99681.75;5010275;28;20104;-69
2021/07/25 07:08:37;;;;;;;7.85;5.63;;;;;;;24.16;43.72;99688.13;5010452;28;20071;-67
2021/07/25 07:11:02;;;;;;;11.65;6.10;;;;;;;24.20;43.30;99681.13;4998057;28;20527;-68
2021/07/25 07:13:28;;;;;;;9.93;6.57;;;;;;;24.27;42.89;99670.88;5008910;28;20284;-69
2021/07/25 07:15:54;;;;;;;9.45;7.10;;;;;;;24.46;42.64;99683.75;5008516;28;20430;-67
2021/07/25 07:18:19;;;;;;;8.10;6.82;;;;;;;24.49;41.78;99683.66;5010053;28;20052;-70
2021/07/25 07:20:45;;;;;;;7.40;6.53;;;;;;;24.65;42.58;99685.16;5009844;28;20542;-68
2021/07/25 07:23:13;;;;;;;11.25;6.40;;;;;;;24.68;42.28;99684.28;5010352;28;20030;-69
2021/07/25 07:25:42;;;;;;;12.13;6.57;;;;;;;24.79;41.71;99678.44;5007125;28;20121;-68
2021/07/25 07:28:08;;;;;;;8.02;5.72;;;;;;;24.85;42.43;99678.78;5009772;28;20464;-69
2021/07/25 07:30:34;;;;;;;11.55;7.00;;;;;;;25.04;41.61;99685.88;5007890;28;20034;-68
2021/07/25 07:33:10;;;;;;;8.65;6.60;;;;;;;25.11;43.03;99680.06;5009940;28;20033;-69
2021/07/25 07:35:36;;;;;;;13.02;6.80;;;;;;;25.24;41.40;99675.38;5008963;28;20492;-69
2021/07/25 07:38:02;;;;;;;16.45;7.05;;;;;;;25.22;41.13;99677.06;5007974;28;20053;-70
2021/07/25 07:40:29;;;;;;;22.83;7.85;;;;;;;25.29;41.75;99681.88;5008910;28;20052;-71
2021/07/25 07:42:55;;;;;;;54.75;10.70;;;;;;;25.41;41.82;99683.31;5008657;28;20025;-72
2021/07/25 07:45:20;;;;;;;78.57;10.27;;;;;;;25.57;41.31;99679.84;5009108;28;20026;-70
2021/07/25 07:47:47;;;;;;;23.95;7.50;;;;;;;25.67;40.62;99673.13;5010307;28;20028;-79
2021/07/25 07:50:13;;;;;;;7.75;5.50;;;;;;;25.71;40.70;99675.94;5006983;28;20196;-79
2021/07/25 07:52:38;;;;;;;9.95;7.07;;;;;;;25.88;40.30;99676.84;5007034;28;20136;-73
2021/07/25 07:55:04;;;;;;;8.43;6.68;;;;;;;25.97;40.32;99679.19;5008685;28;20528;-76
2021/07/25 07:57:30;;;;;;;25.13;7.25;;;;;;;26.05;40.93;99681.47;5008285;28;20534;-76
2021/07/25 07:59:55;;;;;;;29.60;8.45;;;;;;;26.18;39.05;99675.13;5002080;28;20077;-73
2021/07/25 08:02:21;;;;;;;20.13;8.60;;;;;;;26.23;38.61;99680.34;4991384;28;20018;-72
2021/07/25 08:04:46;;;;;;;9.95;6.72;;;;;;;26.37;38.98;99678.47;5002190;28;20415;-77
2021/07/25 08:07:12;;;;;;;14.73;6.72;;;;;;;26.46;38.30;99679.53;5007859;28;20018;-75
2021/07/25 08:09:37;;;;;;;12.50;7.65;;;;;;;26.46;38.77;99682.38;5008920;28;20117;-81
2021/07/25 08:12:03;;;;;;;28.08;7.88;;;;;;;26.55;38.56;99672.41;5008776;28;20470;-78
2021/07/25 08:14:28;;;;;;;14.85;6.75;;;;;;;26.60;38.98;99674.75;5008843;28;20519;-83
2021/07/25 08:16:54;;;;;;;13.45;6.75;;;;;;;26.74;38.15;99679.38;5008797;28;20034;-78
2021/07/25 08:19:19;;;;;;;16.73;7.03;;;;;;;26.81;37.93;99678.41;5010147;28;20085;-76
2021/07/25 08:21:45;;;;;;;16.33;6.43;;;;;;;27.07;38.26;99679.50;5004402;28;20054;-72
2021/07/25 08:24:11;;;;;;;14.52;6.53;;;;;;;27.05;37.14;99674.22;5009266;28;20030;-74
2021/07/25 08:26:37;;;;;;;9.27;5.35;;;;;;;27.31;35.35;99674.47;5008373;28;20057;-74
2021/07/25 08:29:03;;;;;;;12.68;5.60;;;;;;;27.18;35.27;99676.41;5006849;28;20034;-79
2021/07/25 08:31:29;;;;;;;13.50;5.68;;;;;;;27.27;36.07;99681.53;5009952;28;20518;-74
2021/07/25 08:33:55;;;;;;;7.35;5.70;;;;;;;27.37;34.74;99676.78;5010424;28;20040;-77
2021/07/25 08:36:20;;;;;;;9.05;5.43;;;;;;;27.54;34.85;99669.84;5009970;28;20112;-69
2021/07/25 08:38:46;;;;;;;13.27;5.95;;;;;;;27.73;32.88;99673.06;5013509;28;20049;-73
2021/07/25 08:41:27;;;;;;;9.43;4.88;;;;;;;27.51;34.90;99673.56;5013911;28;20109;-68
2021/07/25 08:44:21;;;;;;;7.97;5.22;;;;;;;27.43;34.18;99672.13;5013572;28;20117;-69
2021/07/25 08:46:53;;;;;;;10.82;5.25;;;;;;;27.64;33.03;99672.91;5010291;28;20066;-68
2021/07/25 08:49:20;;;;;;;14.30;4.75;;;;;;;27.57;34.24;99663.19;5013654;28;20474;-81
2021/07/25 08:51:58;;;;;;;11.10;5.60;;;;;;;27.72;33.77;99666.53;5013622;28;20056;-77
2021/07/25 08:54:28;;;;;;;9.57;5.32;;;;;;;28.05;33.17;99662.81;5013566;28;20038;-76
2021/07/25 08:56:58;;;;;;;;;;;;;;;28.10;32.89;99668.00;5012473;28;20022;-70
2021/07/25 08:59:28;;;;;;;12.10;5.87;;;;;;;27.89;34.06;99673.06;5012254;28;19972;-77
2021/07/25 09:01:58;;;;;;;19.25;5.80;;;;;;;27.92;34.54;99671.34;5013140;28;20108;-73
2021/07/25 09:04:24;;;;;;;13.75;5.28;;;;;;;28.06;33.55;99667.31;5013333;28;20037;-73
2021/07/25 09:06:51;;;;;;;17.02;5.00;;;;;;;28.09;33.69;99666.38;5012981;28;20030;-69
2021/07/25 09:09:19;;;;;;;9.75;4.68;;;;;;;28.16;33.34;99662.50;5012186;28;20069;-77
2021/07/25 09:11:46;;;;;;;22.67;5.13;;;;;;;28.29;32.87;99656.88;5013102;28;20034;-74
2021/07/25 09:14:12;;;;;;;5.90;4.25;;;;;;;28.39;32.16;99664.38;5014524;28;20130;-71
2021/07/25 09:16:37;;;;;;;7.32;4.88;;;;;;;28.35;31.86;99657.13;5013346;28;20196;-78
2021/07/25 09:19:04;;;;;;;12.77;4.90;;;;;;;28.44;31.91;99655.19;5008654;28;20442;-76
2021/07/25 09:21:51;;;;;;;8.95;5.07;;;;;;;28.55;31.78;99651.19;5001807;28;20044;-75
2021/07/25 09:24:23;;;;;;;12.75;5.38;;;;;;;28.65;31.09;99655.00;5010175;28;20042;-73
2021/07/25 09:26:55;;;;;;;17.40;5.60;;;;;;;28.55;31.33;99656.94;5012424;28;20565;-73
2021/07/25 09:29:27;;;;;;;6.15;4.32;;;;;;;28.65;30.28;99655.00;5012084;28;20034;-74
2021/07/25 09:32:11;;;;;;;8.50;5.00;;;;;;;28.86;29.57;99647.88;5012671;28;20022;-75
2021/07/25 09:34:42;;;;;;;10.70;4.95;;;;;;;29.06;29.47;99646.84;5011390;28;20033;-78
2021/07/25 09:37:15;;;;;;;9.18;4.07;;;;;;;29.07;30.14;99648.44;5010428;28;20025;-77
2021/07/25 09:39:45;;;;;;;5.43;4.47;;;;;;;29.08;28.80;99641.41;5004305;28;20033;-72
2021/07/25 09:42:12;;;;;;;6.25;4.68;;;;;;;29.08;28.25;99635.66;5011231;28;20037;-74
2021/07/25 09:44:48;;;;;;;9.70;5.13;;;;;;;29.26;29.16;99635.09;5012209;28;20045;-71
2021/07/25 09:47:44;;;;;;;7.75;4.82;;;;;;;29.38;28.16;99636.38;5010307;28;20437;-74
2021/07/25 09:50:10;;;;;;;30.02;5.32;;;;;;;29.20;27.75;99631.19;5006992;28;20037;-73
2021/07/25 09:52:38;;;;;;;8.48;4.50;;;;;;;29.40;29.13;99626.00;5010450;28;20041;-75
2021/07/25 09:55:08;;;;;;;9.20;4.55;;;;;;;29.32;28.01;99615.16;5010613;28;20401;-69
2021/07/25 09:57:35;;;;;;;7.82;4.60;;;;;;;29.45;27.57;99616.00;5010741;28;20091;-77
2021/07/25 10:00:09;;;;;;;7.35;4.38;;;;;;;29.67;28.64;99618.13;5011838;28;20531;-70
2021/07/25 10:02:43;;;;;;;7.25;4.95;;;;;;;29.73;28.64;99609.72;5009883;28;20034;-71
2021/07/25 10:05:13;;;;;;;12.85;5.57;;;;;;;29.88;28.70;99615.78;4998766;28;20042;-75
2021/07/25 10:07:40;;;;;;;11.32;5.00;;;;;;;29.84;28.18;99604.38;5011125;28;20107;-74
2021/07/25 10:10:08;;;;;;;10.10;4.82;;;;;;;29.92;29.03;99607.81;5011365;28;20042;-78
2021/07/25 10:12:37;;;;;;;5.28;4.75;;;;;;;30.03;28.93;99625.53;5001259;28;20095;-81
2021/07/25 10:15:06;;;;;;;9.30;4.90;;;;;;;30.14;27.80;99607.06;5010242;28;20030;-77
2021/07/25 10:17:33;;;;;;;9.13;5.68;;;;;;;30.32;29.18;99604.34;5006395;28;20076;-76
2021/07/25 10:20:01;;;;;;;7.75;4.55;;;;;;;30.28;27.65;99608.63;5010263;28;20069;-77
2021/07/25 10:22:30;;;;;;;9.02;5.18;;;;;;;30.22;27.98;99606.34;5009147;28;20146;-70
2021/07/25 10:24:58;;;;;;;8.40;4.80;;;;;;;30.30;27.81;99601.13;5009865;28;20180;-73
2021/07/25 10:27:24;;;;;;;9.07;4.75;;;;;;;30.16;28.21;99593.00;5010031;28;20436;-75
2021/07/25 10:29:53;;;;;;;11.07;4.80;;;;;;;30.31;28.09;99601.91;5010929;28;20113;-77
2021/07/25 10:32:20;;;;;;;11.38;4.22;;;;;;;30.19;27.93;99594.97;5008885;28;20411;-76
2021/07/25 10:34:49;;;;;;;9.07;4.60;;;;;;;30.22;28.64;99582.47;5009140;28;20026;-74
2021/07/25 10:37:15;;;;;;;7.18;4.63;;;;;;;30.36;27.44;99587.69;5023621;28;20037;-73
2021/07/25 10:39:44;;;;;;;7.50;4.57;;;;;;;30.34;27.47;99584.50;5000269;28;20084;-79
2021/07/25 10:42:13;;;;;;;10.77;4.53;;;;;;;30.37;28.26;99586.44;4993596;28;20037;-75
2021/07/25 10:44:42;;;;;;;10.77;5.03;;;;;;;30.60;26.44;99589.31;5004943;28;20038;-71
2021/07/25 10:47:17;;;;;;;11.32;4.93;;;;;;;30.59;26.16;99579.84;5008015;28;20492;-76
2021/07/25 10:49:43;;;;;;;6.95;4.80;;;;;;;30.48;25.37;99567.91;5002630;28;20033;-72
2021/07/25 10:52:08;;;;;;;8.32;4.30;;;;;;;30.53;26.97;99573.09;5008393;28;20029;-78
2021/07/25 10:54:44;;;;;;;8.23;4.55;;;;;;;30.75;26.92;99572.25;5008364;28;20048;-74
2021/07/25 10:57:12;;;;;;;9.15;4.70;;;;;;;30.63;27.08;99565.28;5010457;28;20064;-76
2021/07/25 10:59:58;;;;;;;9.43;4.97;;;;;;;30.71;27.23;99575.31;5006384;28;20038;-72
2021/07/25 11:02:24;;;;;;;12.43;5.57;;;;;;;30.84;27.08;99569.41;5000196;28;20124;-74
2021/07/25 11:04:53;;;;;;;17.90;5.18;;;;;;;30.81;26.66;99558.81;4999217;28;20181;-71
2021/07/25 11:07:27;;;;;;;6.70;4.47;;;;;;;30.88;26.35;99564.28;5009383;28;20041;-74
2021/07/25 11:10:09;;;;;;;9.90;4.65;;;;;;;30.62;27.49;99570.22;5007166;28;20041;-79
2021/07/25 11:12:50;;;;;;;10.55;4.97;;;;;;;30.78;27.12;99568.44;4997557;28;20034;-75
2021/07/25 11:15:28;;;;;;;10.15;4.82;;;;;;;31.31;25.73;99555.19;5005499;28;20049;-74
2021/07/25 11:17:55;;;;;;;10.60;5.40;;;;;;;31.16;25.85;99555.75;5006394;28;20053;-75
2021/07/25 11:20:51;;;;;;;12.93;4.47;;;;;;;31.09;25.95;99556.88;5007506;28;20030;-78
2021/07/25 11:23:19;;;;;;;7.68;4.25;;;;;;;31.22;25.74;99542.31;5007101;28;20033;-78
2021/07/25 11:25:46;;;;;;;6.03;3.97;;;;;;;31.50;26.12;99553.13;5006943;28;20041;-69
2021/07/25 11:28:38;;;;;;;4.80;4.13;;;;;;;31.54;25.67;99545.09;5008582;28;20025;-69
2021/07/25 11:31:05;;;;;;;6.80;4.40;;;;;;;31.84;26.03;99547.56;5008269;28;20034;-70